Time;durP1;ratioP1;P1;durP2;ratioP2;P2;SDS_P1;SDS_P2;PMS_P1;PMS_P2;Temp;Humidity;BMP_temperature;BMP_pressure;BME280_temperature;BME280_humidity;BME280_pressure;Samples;Min_cycle;Max_cycle;Signal;HPM_P1;HPM_P2
2021/08/22 00:00:30;;;;;;;;;8.00;7.50;;;;;20.71;63.92;101411.06;6309769;22;45265;-77
2021/08/22 00:02:56;;;;;;;;;8.75;7.75;;;;;20.76;63.63;101413.59;6309281;22;45461;-76
2021/08/22 00:05:22;;;;;;;;;4.50;4.00;;;;;20.74;63.79;101408.28;6309937;22;45377;-77
2021/08/22 00:07:47;;;;;;;;;7.00;5.00;;;;;20.75;63.91;101396.66;6310193;22;45303;-77
2021/08/22 00:10:13;;;;;;;;;6.00;6.00;;;;;20.80;64.17;101407.22;6309710;22;45302;-77
2021/08/22 00:12:39;;;;;;;;;4.75;4.75;;;;;20.75;63.89;101391.31;6281205;22;46114;-77
2021/08/22 00:15:06;;;;;;;;;7.50;6.00;;;;;20.77;64.30;101400.16;6309786;22;45151;-76
2021/08/22 00:17:31;;;;;;;;;9.75;8.25;;;;;20.77;63.85;101396.59;6307550;22;45236;-77
2021/08/22 00:19:57;;;;;;;;;7.00;7.00;;;;;20.81;64.04;101407.16;6307480;22;45334;-77
2021/08/22 00:22:22;;;;;;;;;7.00;7.00;;;;;20.85;63.91;101407.91;6281676;22;46293;-76
2021/08/22 00:24:47;;;;;;;;;5.25;5.25;;;;;20.79;64.32;101400.97;6309868;22;45195;-77
2021/08/22 00:27:13;;;;;;;;;6.25;6.00;;;;;20.80;64.21;101408.09;6309828;22;45097;-76
2021/08/22 00:29:38;;;;;;;;;7.75;7.75;;;;;20.82;64.23;101411.59;6309542;22;45312;-77
2021/08/22 00:32:05;;;;;;;;;6.25;6.25;;;;;20.78;64.66;101412.63;6281579;22;47431;-76
2021/08/22 00:34:30;;;;;;;;;9.00;6.50;;;;;20.73;64.71;101409.22;6309663;22;45358;-77
2021/08/22 00:36:55;;;;;;;;;5.75;5.75;;;;;20.73;64.87;101419.06;6281389;22;45224;-77
2021/08/22 00:39:23;;;;;;;;;7.25;7.00;;;;;20.68;64.94;101420.06;6281231;22;45304;-76
2021/08/22 00:41:48;;;;;;;;;9.75;6.75;;;;;;;;6281210;22;47059;-76
2021/08/22 00:44:14;;;;;;;;;8.75;6.50;;;;;20.64;64.91;101418.44;6308813;22;45203;-76
2021/08/22 00:46:39;;;;;;;;;6.25;6.00;;;;;20.59;65.32;101417.75;6309435;22;45430;-77
2021/08/22 00:49:06;;;;;;;;;6.75;6.75;;;;;20.51;65.48;101416.22;6309586;22;45085;-77
2021/08/22 00:51:31;;;;;;;;;6.00;6.00;;;;;20.50;65.16;101415.31;6309173;22;45213;-77
2021/08/22 00:53:57;;;;;;;;;7.75;6.75;;;;;20.49;65.23;101422.47;6309287;22;45153;-76
2021/08/22 00:56:22;;;;;;;;;6.25;6.25;;;;;20.46;65.07;101419.06;6309549;22;45165;-76
2021/08/22 00:58:48;;;;;;;;;5.50;5.50;;;;;20.47;65.56;101428.81;6309213;22;45092;-77
2021/08/22 01:01:22;;;;;;;;;6.00;6.00;;;;;20.48;65.28;101433.25;6280842;22;46455;-77
2021/08/22 01:03:57;;;;;;;;;6.50;5.75;;;;;20.43;65.53;101432.53;6309062;22;45102;-77
2021/08/22 01:06:46;;;;;;;;;7.25;7.25;;;;;20.46;65.25;101440.44;6309335;22;45209;-77
2021/08/22 01:09:19;;;;;;;;;7.00;7.00;;;;;20.39;65.54;101431.75;6281421;22;45362;-76
2021/08/22 01:11:46;;;;;;;;;7.00;7.00;;;;;20.39;65.40;101431.75;6309437;22;45260;-77
2021/08/22 01:14:18;;;;;;;;;6.25;6.00;;;;;20.42;65.42;101438.78;6280769;22;45398;-77
2021/08/22 01:16:50;;;;;;;;;7.00;6.25;;;;;20.41;65.49;101439.72;6281989;22;45402;-77
2021/08/22 01:19:33;;;;;;;;;6.75;5.50;;;;;20.40;65.21;101441.53;6310754;22;45102;-77
2021/08/22 01:22:01;;;;;;;;;8.75;8.75;;;;;20.36;65.56;101430.97;6310352;22;46709;-77
2021/08/22 01:24:28;;;;;;;;;4.75;4.00;;;;;20.37;65.48;101452.34;6310709;22;45272;-77
2021/08/22 01:26:57;;;;;;;;;7.25;7.00;;;;;20.28;65.26;101444.59;6310562;22;45290;-77
2021/08/22 01:29:27;;;;;;;;;10.00;7.25;;;;;20.32;65.56;101456.97;6310447;22;45356;-77
2021/08/22 01:31:54;;;;;;;;;7.25;6.00;;;;;20.31;65.27;101460.53;6281857;22;48368;-77
2021/08/22 01:34:21;;;;;;;;;6.50;5.75;;;;;20.31;65.58;101460.53;6310736;22;45364;-77
2021/08/22 01:36:47;;;;;;;;;7.75;7.75;;;;;20.29;65.34;101454.41;6282607;22;45302;-77
2021/08/22 01:39:14;;;;;;;;;7.50;6.25;;;;;20.28;65.47;101456.16;6282210;22;45346;-77
2021/08/22 01:41:43;;;;;;;;;6.00;6.00;;;;;20.25;65.43;101442.91;6310214;22;45177;-77
2021/08/22 01:44:13;;;;;;;;;7.50;6.25;;;;;20.27;65.10;101450.88;6309620;22;45378;-77
2021/08/22 01:46:38;;;;;;;;;4.25;4.00;;;;;20.27;64.91;101446.41;6310180;22;45276;-77
2021/08/22 01:49:07;;;;;;;;;9.00;8.50;;;;;20.27;65.32;101461.59;6282606;22;45460;-77
2021/08/22 01:51:33;;;;;;;;;6.50;5.00;;;;;20.24;65.03;101454.53;6282365;22;47177;-77
2021/08/22 01:54:06;;;;;;;;;5.25;4.25;;;;;20.16;65.37;101437.00;6310394;22;45338;-77
2021/08/22 01:56:32;;;;;;;;;6.50;5.50;;;;;20.18;64.81;101440.47;6310537;22;45233;-76
2021/08/22 01:58:59;;;;;;;;;4.67;4.00;;;;;20.23;64.51;101454.56;6281885;22;45401;-77
2021/08/22 02:01:24;;;;;;;;;6.67;6.33;;;;;20.22;64.47;101456.38;6281811;22;47138;-77
2021/08/22 02:04:18;;;;;;;;;5.00;5.00;;;;;20.21;64.60;101465.34;6282441;22;45589;-77
2021/08/22 02:06:54;;;;;;;;;4.75;4.75;;;;;20.17;64.44;101458.31;6310547;22;45248;-77
2021/08/22 02:09:25;;;;;;;;;5.00;4.00;;;;;20.17;64.86;101460.13;6310107;22;45235;-77
2021/08/22 02:11:59;;;;;;;;;5.00;5.00;;;;;20.08;64.24;101453.28;6282169;22;47353;-77
2021/08/22 02:14:27;;;;;;;;;4.75;4.50;;;;;20.10;64.30;101469.25;6309892;22;45177;-77
2021/08/22 02:16:55;;;;;;;;;6.25;4.50;;;;;20.05;64.51;101456.94;6310357;22;45216;-76
2021/08/22 02:19:23;;;;;;;;;5.67;5.67;;;;;20.07;64.66;101466.69;6281995;22;45255;-77
2021/08/22 02:21:49;;;;;;;;;4.00;4.00;;;;;20.08;64.18;101468.47;6282121;22;47871;-77
2021/08/22 02:24:15;;;;;;;;;5.75;5.00;;;;;20.03;64.30;101474.81;6310292;22;45163;-77
2021/08/22 02:26:41;;;;;;;;;6.50;6.00;;;;;19.99;64.39;101466.94;6310414;22;45191;-77
2021/08/22 02:29:06;;;;;;;;;5.00;4.00;;;;;19.95;64.23;101471.50;6281872;22;45364;-77
2021/08/22 02:31:32;;;;;;;;;4.50;4.00;;;;;19.89;64.50;101462.78;6310036;22;46376;-76
2021/08/22 02:33:59;;;;;;;;;6.33;4.00;;;;;19.91;64.00;101476.97;6310150;22;45215;-77
2021/08/22 02:36:26;;;;;;;;;6.67;6.00;;;;;19.88;64.31;101472.59;6310534;22;45373;-77
2021/08/22 02:38:51;;;;;;;;;6.25;4.75;;;;;19.83;64.43;101466.53;6282062;22;45304;-77
2021/08/22 02:41:17;;;;;;;;;4.67;4.67;;;;;19.85;64.43;101469.16;6282068;22;46163;-77
2021/08/22 02:43:42;;;;;;;;;4.25;4.25;;;;;19.81;64.24;101466.59;6309608;22;45320;-77
2021/08/22 02:46:08;;;;;;;;;4.00;3.75;;;;;19.71;64.17;101461.56;6282180;22;45267;-76
2021/08/22 02:48:34;;;;;;;;;8.00;4.25;;;;;19.74;64.15;101470.34;6282394;22;45180;-76
2021/08/22 02:51:00;;;;;;;;;4.50;4.50;;;;;19.77;64.15;101474.72;6282028;22;46570;-76
2021/08/22 02:53:25;;;;;;;;;6.00;5.00;;;;;19.67;64.12;101459.91;6310480;22;45200;-77
2021/08/22 02:55:51;;;;;;;;;6.00;4.75;;;;;19.61;63.65;101461.78;6310440;22;45177;-77
2021/08/22 02:58:16;;;;;;;;;7.00;5.00;;;;;19.60;63.82;101460.06;6310108;22;45269;-77
2021/08/22 03:00:42;;;;;;;;;6.67;5.67;;;;;19.56;63.63;101461.06;6310146;22;45276;-77
2021/08/22 03:03:07;;;;;;;;;7.25;6.50;;;;;19.56;63.61;101473.53;6310072;22;45207;-77
2021/08/22 03:05:32;;;;;;;;;9.50;7.50;;;;;19.50;63.24;101469.25;6310319;22;45180;-77
2021/08/22 03:07:58;;;;;;;;;6.50;6.00;;;;;19.40;63.38;101462.44;6281990;22;45510;-77
2021/08/22 03:10:23;;;;;;;;;7.25;5.75;;;;;19.43;63.49;101475.69;6282025;22;46983;-77
2021/08/22 03:12:49;;;;;;;;;6.00;6.00;;;;;19.38;63.18;101473.16;6281344;22;45306;-77
2021/08/22 03:15:14;;;;;;;;;5.67;4.00;;;;;19.27;62.92;101461.94;6282028;22;45493;-77
2021/08/22 03:17:40;;;;;;;;;9.00;7.00;;;;;19.22;63.56;101461.19;6309977;22;45313;-77
2021/08/22 03:20:06;;;;;;;;;6.00;6.00;;;;;19.22;63.50;101471.84;6281988;22;45956;-77
2021/08/22 03:22:32;;;;;;;;;7.00;5.33;;;;;19.21;63.10;101464.75;6281607;22;45407;-77
2021/08/22 03:24:58;;;;;;;;;7.00;7.00;;;;;19.12;63.23;101463.22;6282323;22;45213;-77
2021/08/22 03:27:23;;;;;;;;;5.00;5.00;;;;;19.06;63.12;101451.81;6281903;22;45412;-77
2021/08/22 03:29:49;;;;;;;;;6.00;6.00;;;;;19.06;63.07;101463.41;6281788;22;45814;-76
2021/08/22 03:32:14;;;;;;;;;4.00;4.00;;;;;19.00;62.96;101455.53;6309947;22;45097;-77
2021/08/22 03:34:40;;;;;;;;;8.00;5.00;;;;;19.01;63.24;101461.78;6310313;22;45170;-77
2021/08/22 03:37:06;;;;;;;;;9.33;6.33;;;;;18.99;63.51;101463.59;6309743;22;45160;-76
2021/08/22 03:39:31;;;;;;;;;8.67;8.67;;;;;18.93;63.06;101457.50;6281938;22;46888;-76
2021/08/22 03:41:57;;;;;;;;;8.00;7.00;;;;;18.92;63.23;101458.44;6309848;22;45117;-76
2021/08/22 03:44:22;;;;;;;;;6.50;6.00;;;;;18.92;63.16;101457.53;6307668;22;45702;-76
2021/08/22 03:46:48;;;;;;;;;6.00;6.00;;;;;18.86;63.16;101455.91;6281735;22;45581;-76
2021/08/22 03:49:13;;;;;;;;;9.25;6.50;;;;;18.94;63.19;101474.38;6309666;22;45511;-76
2021/08/22 03:51:40;;;;;;;;;7.25;6.25;;;;;18.85;63.73;101458.63;6282138;22;45193;-76
2021/08/22 03:54:05;;;;;;;;;6.75;6.75;;;;;18.83;63.15;101460.47;6310051;22;45320;-76
2021/08/22 03:56:31;;;;;;;;;7.75;7.00;;;;;18.81;63.34;101465.81;6281864;22;45455;-77
2021/08/22 03:58:56;;;;;;;;;6.67;6.67;;;;;18.86;63.54;101471.03;6309697;22;45473;-76
2021/08/22 04:01:22;;;;;;;;;7.25;6.50;;;;;18.84;63.00;101465.75;6309677;22;45230;-76
2021/08/22 04:03:49;;;;;;;;;7.00;7.00;;;;;18.80;62.98;101464.09;6310426;22;45318;-76
2021/08/22 04:06:14;;;;;;;;;6.75;6.75;;;;;18.81;63.47;101468.50;6281619;22;45723;-77
2021/08/22 04:08:40;;;;;;;;;9.50;8.00;;;;;18.83;63.40;101482.69;6307388;22;47210;-77
2021/08/22 04:11:09;;;;;;;;;9.25;8.00;;;;;18.81;63.22;101480.97;6309653;22;45260;-76
2021/08/22 04:13:35;;;;;;;;;6.50;6.50;;;;;18.80;63.42;101480.09;6281531;22;45359;-76
2021/08/22 04:16:01;;;;;;;;;6.75;5.50;;;;;18.75;63.51;101474.00;6309481;22;45400;-76
2021/08/22 04:18:26;;;;;;;;;5.75;4.75;;;;;18.83;63.62;101493.34;6309977;22;46207;-77
2021/08/22 04:20:52;;;;;;;;;5.25;5.25;;;;;18.80;63.37;101487.22;6281700;22;45840;-77
2021/08/22 04:23:18;;;;;;;;;8.75;8.00;;;;;18.80;63.34;101489.91;6281712;22;45344;-77
2021/08/22 04:25:43;;;;;;;;;7.00;6.00;;;;;18.78;63.30;101481.91;6281268;22;45402;-77
2021/08/22 04:28:09;;;;;;;;;7.75;7.50;;;;;18.73;63.40;101479.31;6309575;22;45263;-77
2021/08/22 04:30:34;;;;;;;;;3.00;2.00;;;;;18.66;63.08;101467.09;6309352;22;45199;-76
2021/08/22 04:33:00;;;;;;;;;12.50;9.50;;;;;18.67;63.38;101473.28;6309585;22;45599;-77
2021/08/22 04:35:29;;;;;;;;;5.00;5.00;;;;;18.73;62.92;101478.47;6281587;22;45319;-76
2021/08/22 04:37:55;;;;;;;;;7.75;6.50;;;;;18.71;62.86;101474.94;6309656;22;45357;-76
2021/08/22 04:40:20;;;;;;;;;7.00;5.00;;;;;18.70;63.05;101478.53;6309218;22;45168;-76
2021/08/22 04:42:46;;;;;;;;;7.00;6.00;;;;;18.67;62.89;101470.63;6309281;22;45361;-76
2021/08/22 04:45:11;;;;;;;;;10.00;7.25;;;;;18.74;62.50;101480.22;6307344;22;45443;-77
2021/08/22 04:47:37;;;;;;;;;8.75;7.25;;;;;18.76;62.92;101488.22;6309323;22;45346;-77
2021/08/22 04:50:03;;;;;;;;;9.25;7.00;;;;;18.67;62.81;101483.97;6310142;22;45467;-77
2021/08/22 04:52:28;;;;;;;;;7.50;6.75;;;;;18.64;63.00;101482.25;6311071;22;45372;-77
2021/08/22 04:54:53;;;;;;;;;6.33;6.33;;;;;18.64;62.94;101497.38;6310998;22;45157;-76
2021/08/22 04:57:19;;;;;;;;;6.67;6.00;;;;;18.59;62.82;101489.47;6282740;22;46121;-77
2021/08/22 04:59:44;;;;;;;;;8.25;7.00;;;;;18.56;62.91;101480.69;6282378;22;45180;-77
2021/08/22 05:02:10;;;;;;;;;9.00;8.25;;;;;18.58;62.88;101493.06;6310818;22;45216;-77
2021/08/22 05:04:35;;;;;;;;;6.50;6.50;;;;;18.53;62.92;101489.66;6310760;22;45179;-77
2021/08/22 05:07:01;;;;;;;;;5.67;4.67;;;;;18.51;62.67;101484.34;6282640;22;45945;-77
2021/08/22 05:09:26;;;;;;;;;5.00;4.33;;;;;18.50;62.54;101487.06;6282635;22;45208;-77
2021/08/22 05:11:51;;;;;;;;;5.00;5.00;;;;;18.52;63.03;101490.53;6310955;22;45230;-77
2021/08/22 05:14:17;;;;;;;;;9.67;5.67;;;;;18.58;62.91;101495.75;6282430;22;45488;-77
2021/08/22 05:16:42;;;;;;;;;6.25;5.50;;;;;18.61;62.89;101501.00;6308460;22;47581;-77
2021/08/22 05:19:08;;;;;;;;;5.50;5.50;;;;;18.55;62.62;101492.25;6282702;22;45204;-76
2021/08/22 05:21:34;;;;;;;;;6.00;6.00;;;;;18.50;62.78;101485.25;6282878;22;45310;-76
2021/08/22 05:23:59;;;;;;;;;6.25;6.00;;;;;18.52;62.63;101495.88;6310686;22;45371;-76
2021/08/22 05:26:26;;;;;;;;;5.50;5.50;;;;;18.51;62.36;101512.78;6282495;22;47067;-77
2021/08/22 05:28:52;;;;;;;;;6.00;6.00;;;;;18.43;62.41;101488.13;6310445;22;45326;-77
2021/08/22 05:31:17;;;;;;;;;7.25;6.50;;;;;18.49;62.75;101506.63;6310390;22;45449;-76
2021/08/22 05:33:44;;;;;;;;;4.00;4.00;;;;;18.44;63.18;101493.41;6282358;22;46084;-76
2021/08/22 05:36:20;;;;;;;;;7.50;5.75;;;;;18.49;62.69;101495.94;6310374;22;45163;-76
2021/08/22 05:38:47;;;;;;;;;6.00;6.00;;;;;18.52;62.55;101504.78;6282248;22;45253;-76
2021/08/22 05:41:12;;;;;;;;;7.00;7.00;;;;;18.49;63.10;101502.16;6310600;22;45078;-76
2021/08/22 05:43:39;;;;;;;;;7.50;7.00;;;;;18.54;62.54;101507.38;6309707;22;45251;-77
2021/08/22 05:46:05;;;;;;;;;6.75;6.00;;;;;18.48;62.81;101502.22;6310091;22;45413;-76
2021/08/22 05:48:32;;;;;;;;;9.00;6.00;;;;;18.52;62.64;101509.22;6282535;22;45892;-76
2021/08/22 05:50:57;;;;;;;;;8.75;7.75;;;;;18.49;62.41;101498.63;6310581;22;45298;-77
2021/08/22 05:53:23;;;;;;;;;6.50;6.00;;;;;18.51;62.65;101505.66;6310292;22;45341;-77
2021/08/22 05:55:48;;;;;;;;;6.75;5.00;;;;;18.55;62.57;101506.50;6310593;22;45326;-77
2021/08/22 05:58:13;;;;;;;;;6.50;5.75;;;;;18.52;62.73;101504.78;6310220;22;45175;-77
2021/08/22 06:00:40;;;;;;;;;7.50;7.50;;;;;18.56;62.09;101500.22;6310527;22;45821;-77
2021/08/22 06:03:05;;;;;;;;;6.00;6.00;;;;;18.58;61.95;101510.84;6310591;22;45201;-76
2021/08/22 06:05:31;;;;;;;;;5.25;4.25;;;;;18.53;62.21;101513.66;6310437;22;45553;-76
2021/08/22 06:07:56;;;;;;;;;7.25;7.25;;;;;18.56;62.42;101510.03;6308291;22;45219;-77
2021/08/22 06:10:22;;;;;;;;;5.75;5.00;;;;;18.51;62.21;101524.34;6282472;22;45604;-76
2021/08/22 06:12:47;;;;;;;;;5.00;5.00;;;;;18.50;62.55;101519.94;6310217;22;45429;-77
2021/08/22 06:15:12;;;;;;;;;8.00;6.50;;;;;18.56;62.68;101532.22;6308606;22;46514;-77
2021/08/22 06:17:38;;;;;;;;;6.00;6.00;;;;;18.61;62.38;101537.47;6310374;22;45150;-77
2021/08/22 06:20:05;;;;;;;;;7.50;4.75;;;;;18.57;62.32;101530.44;6282863;22;45236;-77
2021/08/22 06:22:30;;;;;;;;;5.00;5.00;;;;;18.55;62.44;101524.25;6282264;22;45491;-77
2021/08/22 06:24:56;;;;;;;;;4.50;4.25;;;;;18.57;62.11;101531.31;6309102;22;48265;-77
2021/08/22 06:27:21;;;;;;;;;5.50;5.50;;;;;18.62;62.33;101533.88;6281811;22;45342;-77
2021/08/22 06:29:47;;;;;;;;;5.75;5.75;;;;;18.62;62.76;101525.88;6310485;22;45351;-77
2021/08/22 06:32:12;;;;;;;;;5.00;5.00;;;;;18.69;62.46;101536.34;6310014;22;45245;-77
2021/08/22 06:34:38;;;;;;;;;5.25;5.00;;;;;18.77;62.47;101540.66;6310237;22;45302;-77
2021/08/22 06:37:03;;;;;;;;;9.50;7.00;;;;;18.77;62.19;101540.66;6281898;22;45171;-77
2021/08/22 06:39:29;;;;;;;;;3.33;3.33;;;;;18.79;62.17;101538.81;6310490;22;45189;-77
2021/08/22 06:41:54;;;;;;;;;5.00;4.75;;;;;18.83;62.46;101540.50;6310151;22;45066;-77
2021/08/22 06:44:19;;;;;;;;;5.75;5.50;;;;;18.90;62.45;101556.31;6309232;22;45265;-77
2021/08/22 06:46:45;;;;;;;;;9.00;8.00;;;;;18.96;62.08;101552.63;6309966;22;45150;-77
2021/08/22 06:49:10;;;;;;;;;10.50;8.75;;;;;18.97;62.33;101562.38;6281973;22;45390;-77
2021/08/22 06:51:36;;;;;;;;;12.00;10.50;;;;;19.07;61.75;101565.69;6310156;22;45152;-77
2021/08/22 06:54:01;;;;;;;;;7.00;6.75;;;;;19.12;61.97;101569.13;6310197;22;46498;-77
2021/08/22 06:56:27;;;;;;;;;7.00;6.67;;;;;19.13;61.75;101578.88;6282148;22;45185;-77
2021/08/22 06:58:52;;;;;;;;;6.25;5.00;;;;;19.20;61.62;101574.25;6310195;22;45153;-77
2021/08/22 07:01:18;;;;;;;;;6.00;6.00;;;;;19.23;61.73;101580.38;6310154;22;45429;-77
2021/08/22 07:03:43;;;;;;;;;5.00;5.00;;;;;19.24;61.49;101581.25;6281712;22;46013;-77
2021/08/22 07:06:09;;;;;;;;;7.25;6.25;;;;;19.27;61.78;101578.50;6309857;22;45264;-77
2021/08/22 07:08:34;;;;;;;;;8.00;7.50;;;;;19.21;61.82;101576.88;6310304;22;45290;-77
2021/08/22 07:11:02;;;;;;;;;4.33;4.33;;;;;19.31;61.30;101585.53;6309800;22;45361;-76
2021/08/22 07:13:27;;;;;;;;;7.67;5.67;;;;;19.28;61.33;101580.28;6308931;22;45310;-76
2021/08/22 07:15:53;;;;;;;;;6.50;6.00;;;;;19.24;61.23;101568.78;6309953;22;45346;-76
2021/08/22 07:18:18;;;;;;;;;4.67;4.67;;;;;19.27;61.06;101584.75;6282471;22;45353;-76
2021/08/22 07:20:44;;;;;;;;;3.00;3.00;;;;;19.32;60.95;101580.13;6282079;22;45493;-76
2021/08/22 07:23:09;;;;;;;;;4.67;4.00;;;;;19.38;60.88;101589.78;6281643;22;47022;-76
2021/08/22 07:25:34;;;;;;;;;4.00;4.00;;;;;19.42;60.98;101588.78;6281863;22;45515;-76
2021/08/22 07:28:00;;;;;;;;;3.00;2.67;;;;;19.45;60.63;101588.69;6309815;22;45098;-76
2021/08/22 07:30:25;;;;;;;;;5.33;4.67;;;;;19.44;60.71;101581.59;6309994;22;45467;-76
2021/08/22 07:32:51;;;;;;;;;3.67;3.67;;;;;19.49;60.74;101593.03;6307770;22;46032;-76
2021/08/22 07:35:17;;;;;;;;;4.67;4.67;;;;;19.53;60.50;101592.03;6309960;22;45111;-76
2021/08/22 07:37:43;;;;;;;;;4.00;4.00;;;;;19.58;60.34;101581.22;6309871;22;45173;-76
2021/08/22 07:40:08;;;;;;;;;5.00;3.00;;;;;19.67;60.23;101598.81;6307812;22;45366;-76
2021/08/22 07:42:34;;;;;;;;;4.00;3.67;;;;;19.68;60.13;101582.75;6309685;22;46325;-76
2021/08/22 07:44:59;;;;;;;;;4.00;3.33;;;;;19.72;60.24;101583.53;6309235;22;45431;-76
2021/08/22 07:47:25;;;;;;;;;4.67;4.67;;;;;19.77;59.69;101585.16;6308133;22;45353;-76
2021/08/22 07:49:50;;;;;;;;;4.67;3.67;;;;;19.80;59.62;101593.09;6307808;22;45267;-76
2021/08/22 07:52:15;;;;;;;;;4.67;4.67;;;;;19.88;59.58;101589.31;6282083;22;46809;-76
2021/08/22 07:54:41;;;;;;;;;2.33;2.33;;;;;19.98;59.51;101590.81;6281693;22;45350;-76
2021/08/22 07:57:06;;;;;;;;;3.67;2.67;;;;;20.08;59.45;101594.97;6282202;22;45337;-77
2021/08/22 07:59:32;;;;;;;;;3.67;3.67;;;;;20.16;59.12;101595.63;6281547;22;45275;-76
2021/08/22 08:01:58;;;;;;;;;3.33;3.33;;;;;20.30;58.98;101623.75;6309624;22;45319;-76
2021/08/22 08:04:24;;;;;;;;;4.00;2.67;;;;;20.35;58.16;101614.66;6281510;22;45350;-76
2021/08/22 08:06:49;;;;;;;;;2.67;2.67;;;;;20.41;58.45;101625.16;6310213;22;45184;-76
2021/08/22 08:09:15;;;;;;;;;2.67;2.67;;;;;20.40;57.97;101611.84;6281916;22;45294;-76
2021/08/22 08:11:40;;;;;;;;;3.00;2.00;;;;;20.41;58.23;101602.88;6309736;22;46344;-76
2021/08/22 08:14:06;;;;;;;;;5.00;4.00;;;;;20.54;57.93;101606.09;6281443;22;45207;-76
2021/08/22 08:16:31;;;;;;;;;2.33;2.33;;;;;20.66;57.75;101613.72;6281697;22;45496;-76
2021/08/22 08:18:57;;;;;;;;;4.00;1.33;;;;;20.71;57.15;101606.41;6309873;22;45187;-76
2021/08/22 08:21:22;;;;;;;;;5.33;4.33;;;;;20.73;56.93;101617.09;6309906;22;45168;-76
2021/08/22 08:23:48;;;;;;;;;3.33;2.00;;;;;20.77;57.22;101614.28;6283296;22;45229;-76
2021/08/22 08:26:13;;;;;;;;;4.00;4.00;;;;;20.83;56.90;101616.75;6313417;22;45144;-76
2021/08/22 08:28:40;;;;;;;;;3.33;3.33;;;;;20.87;56.85;101620.19;6312828;22;45323;-76
2021/08/22 08:31:05;;;;;;;;;3.00;3.00;;;;;20.87;56.56;101614.84;6284883;22;45943;-76
2021/08/22 08:33:30;;;;;;;;;3.00;3.00;;;;;20.96;56.79;101630.59;6312959;22;45309;-76
2021/08/22 08:35:56;;;;;;;;;2.00;2.00;;;;;21.03;56.39;101626.78;6285137;22;45287;-76
2021/08/22 08:38:21;;;;;;;;;6.00;4.00;;;;;20.99;55.73;101619.78;6285192;22;45751;-76
2021/08/22 08:40:47;;;;;;;;;4.33;3.00;;;;;21.02;55.94;101619.69;6312902;22;45344;-76
2021/08/22 08:43:13;;;;;;;;;3.00;3.00;;;;;21.03;55.51;101629.47;6284777;22;45268;-76
2021/08/22 08:45:46;;;;;;;;;0.00;0.00;;;;;21.02;55.74;101618.81;6284387;22;45134;-76
2021/08/22 08:48:15;;;;;;;;;3.67;2.67;;;;;21.14;55.67;101627.31;6312710;22;45331;-76
2021/08/22 08:50:49;;;;;;;;;2.00;2.00;;;;;21.30;55.47;101629.47;6312116;22;46312;-76
2021/08/22 08:53:20;;;;;;;;;4.00;2.67;;;;;21.44;54.85;101629.91;6310627;22;45137;-76
2021/08/22 08:55:57;;;;;;;;;3.00;3.00;;;;;21.57;54.43;101617.84;6312999;22;45402;-76
2021/08/22 08:58:23;;;;;;;;;4.00;4.00;;;;;21.63;54.41;101626.59;6283779;22;45718;-76
2021/08/22 09:00:49;;;;;;;;;2.33;1.00;;;;;21.69;53.51;101632.59;6284088;22;45366;-76
2021/08/22 09:03:19;;;;;;;;;4.67;2.00;;;;;21.66;53.22;101631.84;6310734;22;45176;-76
2021/08/22 09:06:09;;;;;;;;;2.33;2.00;;;;;21.62;53.48;101630.19;6313015;22;45262;-76
2021/08/22 09:09:12;;;;;;;;;3.00;3.00;;;;;21.61;53.63;101631.13;6284118;22;45303;-76
2021/08/22 09:12:14;;;;;;;;;1.67;1.67;;;;;21.70;53.48;101638.81;6284279;22;48004;-76
2021/08/22 09:15:21;;;;;;;;;4.00;4.00;;;;;21.86;53.40;101640.00;6260699;22;45322;-76
2021/08/22 09:18:20;;;;;;;;;1.67;1.67;;;;;21.98;52.81;101646.75;6295679;22;45381;-76
2021/08/22 09:21:23;;;;;;;;;3.00;2.00;;;;;21.96;52.71;101643.25;6312645;22;45479;-76
2021/08/22 09:24:26;;;;;;;;;2.67;2.67;;;;;21.97;52.64;101643.19;6283924;22;48142;-76
2021/08/22 09:27:30;;;;;;;;;1.67;1.67;;;;;21.92;52.46;101630.84;6312447;22;45366;-76
2021/08/22 09:30:33;;;;;;;;;2.67;2.67;;;;;21.92;52.58;101646.94;6278242;22;45603;-76
2021/08/22 09:33:36;;;;;;;;;4.00;4.00;;;;;21.89;52.64;101649.75;6284221;22;45464;-76
2021/08/22 09:36:20;;;;;;;;;3.00;2.00;;;;;21.88;52.50;101639.97;6310286;22;45392;-76
2021/08/22 09:39:24;;;;;;;;;2.67;2.67;;;;;21.85;52.19;101653.50;6282237;22;45165;-76
2021/08/22 09:42:27;;;;;;;;;1.00;1.00;;;;;21.82;52.72;101650.94;6234896;22;45284;-77
2021/08/22 09:45:27;;;;;;;;;2.00;2.00;;;;;21.84;52.60;101646.34;6281922;22;45721;-77
2021/08/22 09:48:37;;;;;;;;;2.00;2.00;;;;;21.95;53.14;101642.38;6281851;22;47108;-76
2021/08/22 09:51:09;;;;;;;;;2.00;2.00;;;;;22.14;52.56;101652.41;6214028;22;45405;-76
2021/08/22 09:54:05;;;;;;;;;3.00;2.00;;;;;22.26;52.28;101654.66;6215205;22;45337;-76
2021/08/22 09:57:04;;;;;;;;;3.67;3.00;;;;;22.38;52.01;101656.00;6282335;22;45202;-76
2021/08/22 09:59:45;;;;;;;;;1.33;1.00;;;;;22.46;51.43;101656.59;6308229;22;46557;-76
2021/08/22 10:02:29;;;;;;;;;0.33;0.33;;;;;22.52;50.97;101667.06;6307780;22;45425;-76
2021/08/22 10:05:01;;;;;;;;;1.00;0.33;;;;;22.58;50.31;101660.59;6308481;22;45386;-76
2021/08/22 10:07:35;;;;;;;;;1.00;1.00;;;;;22.60;50.09;101654.22;6282045;22;45376;-76
2021/08/22 10:10:10;;;;;;;;;1.00;1.00;;;;;22.63;49.82;101646.06;6309934;22;45336;-77
2021/08/22 10:12:36;;;;;;;;;0.67;0.67;;;;;22.65;49.53;101648.69;6281524;22;45210;-77
2021/08/22 10:15:03;;;;;;;;;3.00;2.00;;;;;22.66;49.32;101651.28;6282384;22;45246;-77
2021/08/22 10:17:28;;;;;;;;;2.00;2.00;;;;;22.75;49.99;101651.84;6281988;22;45334;-76
2021/08/22 10:19:54;;;;;;;;;0.67;0.67;;;;;22.80;49.45;101637.34;6310173;22;45341;-77
2021/08/22 10:22:34;;;;;;;;;0.67;0.00;;;;;22.92;48.99;101641.31;6310369;22;45278;-77
2021/08/22 10:25:05;;;;;;;;;1.00;1.00;;;;;23.02;48.89;101649.94;6310311;22;45189;-77
2021/08/22 10:27:30;;;;;;;;;1.00;1.00;;;;;23.10;48.98;101647.78;6281611;22;45291;-76
2021/08/22 10:29:57;;;;;;;;;1.67;1.67;;;;;23.15;48.93;101648.47;6307181;22;48295;-77
2021/08/22 10:32:23;;;;;;;;;2.00;1.33;;;;;23.16;49.04;101642.16;6307356;22;45406;-78
2021/08/22 10:35:17;;;;;;;;;2.00;2.00;;;;;23.30;49.06;101645.13;6309728;22;45310;-77
2021/08/22 10:37:44;;;;;;;;;1.33;1.33;;;;;23.40;49.03;101639.38;6309380;22;45376;-77
2021/08/22 10:40:25;;;;;;;;;1.67;1.67;;;;;23.34;48.86;101636.00;6281909;22;46998;-76
2021/08/22 10:42:57;;;;;;;;;1.00;1.00;;;;;23.26;48.33;101648.91;6309737;22;45335;-78
2021/08/22 10:45:52;;;;;;;;;3.00;2.00;;;;;23.27;48.99;101639.88;6308293;22;45472;-78
2021/08/22 12:22:28;;;;;;;;;1.00;1.00;;;;;22.77;48.37;101680.41;6317392;22;45462;-92
2021/08/22 12:29:20;;;;;;;;;0.33;0.33;;;;;23.24;47.35;101683.00;6260239;22;45342;-88
2021/08/22 12:31:57;;;;;;;;;;;;;;;;;;;;;
2021/08/22 12:34:23;;;;;;;;;0.00;0.00;;;;;23.60;46.48;101689.56;6316530;22;71955;-87
2021/08/22 12:36:54;;;;;;;;;0.00;0.00;;;;;23.73;46.09;101680.94;6319447;22;45313;-88
2021/08/22 12:39:20;;;;;;;;;2.00;1.00;;;;;23.74;45.06;101681.84;6296359;22;45291;-88
2021/08/22 12:41:51;;;;;;;;;1.00;1.00;;;;;23.83;45.03;101681.41;6319947;22;45452;-88
2021/08/22 12:44:24;;;;;;;;;2.33;1.33;;;;;23.81;45.12;101677.91;6293688;22;45460;-88
2021/08/22 12:47:09;;;;;;;;;2.67;0.67;;;;;23.97;44.27;101687.03;6292271;22;47024;-89
2021/08/22 12:49:45;;;;;;;;;1.00;1.00;;;;;24.16;45.66;101691.59;6289217;22;45771;-89
2021/08/22 12:52:26;;;;;;;;;0.00;0.00;;;;;24.38;44.46;101661.91;6321132;22;45187;-89
2021/08/22 12:55:02;;;;;;;;;1.00;1.00;;;;;24.71;43.85;101677.41;6289072;22;45811;-89
2021/08/22 12:57:35;;;;;;;;;1.00;1.00;;;;;24.90;42.66;101680.97;6321503;22;46105;-88
2021/08/22 13:03:42;;;;;;;;;1.00;1.00;;;;;25.12;42.37;101675.38;6321248;22;45439;-92
2021/08/22 13:10:13;;;;;;;;;0.00;0.00;;;;;25.22;40.81;101678.53;6224736;22;45550;-93
2021/08/22 13:37:39;;;;;;;;;;;;;;;;;;;;;
2021/08/22 13:40:06;;;;;;;;;1.33;0.67;;;;;24.96;40.73;101666.31;6339615;22;67412;-86
2021/08/22 13:42:44;;;;;;;;;0.67;0.67;;;;;24.87;41.15;101681.13;6343506;22;45409;-86
2021/08/22 13:45:35;;;;;;;;;;;;;;;;;;;;;
2021/08/22 13:55:02;;;;;;;;;;;;;;;;;;;;;
2021/08/22 13:57:38;;;;;;;;;2.00;2.00;;;;;25.27;40.57;101693.53;6345130;22;73328;-88
2021/08/22 14:00:50;;;;;;;;;;;;;;;;;;;;;